CT4 weather

CLOSED Budworm City Airport
New Brunswick, Canada

Public forecast

Using degrees Celsius for public forecast. Weather courtesy of forecast.io.

Closest aviation weather report (METAR) to Budworm City Airport

Closest report is Bathurst Airport, 36.6 nm (67.7 km) E. Retrieved 2020/06/05 02:12 UTC (35 minutes ago):

CZBF 050212Z AUTO 00000KT 9SM BKN075 OVC090 16/10 A2974 RMK SLP074 DENSITY ALT 600FT

Closest aviation forecast (TAF) to Budworm City Airport

Forecast is more than 6 hours old.

Closest forecast is Bathurst Airport, 36.6 nm (67.7 km) E. Retrieved 2020/06/04 20:00 UTC (7 hours ago):

TAF CZBF 041938Z 0420/0503 25012G22KT P6SM BKN070 TEMPO 0420/0424 P6SM -SHRA BECMG 0422/0424 26010KT RMK FCST BASED ON AUTO OBS NXT FCST WILL BE ISSUED AT 050845Z